createdAt,value
2023-05-08T00:02:18.645Z,98508.72
2023-05-08T00:04:45.272Z,98502.84
2023-05-08T00:07:12.558Z,98497.59
2023-05-08T00:12:28.977Z,98490.66
2023-05-08T00:14:56.296Z,98468.34
2023-05-08T00:17:23.103Z,98451.81
2023-05-08T00:19:49.838Z,98483.31
2023-05-08T00:22:16.442Z,98461.25
2023-05-08T00:24:42.998Z,98475.13
2023-05-08T00:27:09.529Z,98482.75
2023-05-08T00:29:36.789Z,98453.75
2023-05-08T00:32:03.362Z,98461.25
2023-05-08T00:34:29.918Z,98482.63
2023-05-08T00:36:56.760Z,98443.06
2023-05-08T00:39:23.330Z,98493.97
2023-05-08T00:41:50.125Z,98496.75
2023-05-08T00:44:17.727Z,98484.53
2023-05-08T00:46:45.646Z,98446.53
2023-05-08T00:49:14.571Z,98486.75
2023-05-08T00:51:43.390Z,98480.66
2023-05-08T00:54:10.812Z,98482.31
2023-05-08T00:56:38.357Z,98429.47
2023-05-08T00:59:09.993Z,98472.59
2023-05-08T01:01:37.993Z,98474.53
2023-05-08T01:04:05.348Z,98480.78
2023-05-08T01:06:31.977Z,98491.03
2023-05-08T01:08:58.822Z,98484.25
2023-05-08T01:11:29.095Z,98482.75
2023-05-08T01:14:26.572Z,98480.22
2023-05-08T01:17:02.272Z,98471.53
2023-05-08T01:19:34.815Z,98478.59
2023-05-08T01:22:28.049Z,98485.66
2023-05-08T01:25:06.726Z,98494.50
2023-05-08T01:27:55.187Z,98484.25
2023-05-08T01:31:06.740Z,98475.81
2023-05-08T01:34:09.192Z,98476.91
2023-05-08T01:36:46.157Z,98479.53
2023-05-08T01:39:42.051Z,98470.81
2023-05-08T01:42:13.909Z,98470.22
2023-05-08T01:44:54.681Z,98469.97
2023-05-08T01:47:25.991Z,98443.06
2023-05-08T01:50:08.896Z,98439.03
2023-05-08T01:52:47.329Z,98452.47
2023-05-08T01:55:21.338Z,98453.19
2023-05-08T01:57:52.080Z,98451.53
2023-05-08T02:00:22.259Z,98404.66
2023-05-08T02:02:51.252Z,98446.81
2023-05-08T02:05:21.165Z,98446.53
2023-05-08T02:07:49.673Z,98441.25
2023-05-08T02:10:18.515Z,98446.00
2023-05-08T02:12:46.939Z,98429.31
2023-05-08T02:15:16.334Z,98420.16
2023-05-08T02:17:46.048Z,98431.25
2023-05-08T02:20:15.339Z,98442.38
2023-05-08T02:22:48.431Z,98392.72
2023-05-08T02:25:16.252Z,98442.09
2023-05-08T02:27:45.734Z,98439.88
2023-05-08T02:30:17.505Z,98438.31
2023-05-08T02:32:46.183Z,98404.63
2023-05-08T02:35:15.753Z,98367.34
2023-05-08T02:37:49.468Z,98406.59
2023-05-08T02:40:17.494Z,98408.97
2023-05-08T02:42:45.104Z,98374.84
2023-05-08T02:45:12.422Z,98383.56
2023-05-08T02:48:07.554Z,98411.56
2023-05-08T02:51:08.715Z,98394.41
2023-05-08T02:53:40.877Z,98399.66
2023-05-08T02:56:22.107Z,98341.72
2023-05-08T02:59:20.371Z,98389.41
2023-05-08T03:02:04.040Z,98386.06
2023-05-08T03:04:36.580Z,98372.22
2023-05-08T03:07:04.742Z,98375.53
2023-05-08T03:09:39.081Z,98372.22
2023-05-08T03:12:11.384Z,98325.38
2023-05-08T03:14:47.061Z,98336.31
2023-05-08T03:17:17.156Z,98321.50
2023-05-08T03:19:47.794Z,98350.03
2023-05-08T03:22:16.142Z,98341.31
2023-05-08T03:24:45.278Z,98345.88
2023-05-08T03:27:13.310Z,98301.81
2023-05-08T03:29:40.140Z,98314.44
2023-05-08T03:32:07.953Z,98314.16
2023-05-08T03:34:36.156Z,98284.50
2023-05-08T03:37:03.418Z,98303.50
2023-05-08T03:39:29.981Z,98304.72
2023-05-08T03:41:56.986Z,98297.66
2023-05-08T03:44:25.901Z,98291.84
2023-05-08T03:46:55.840Z,98291.28
2023-05-08T03:51:56.018Z,98262.75
2023-05-08T03:54:25.660Z,98295.72
2023-05-08T03:56:54.470Z,98294.06
2023-05-08T03:59:43.320Z,98292.78
2023-05-08T04:02:21.705Z,98256.81
2023-05-08T04:04:55.659Z,98291.28
2023-05-08T04:07:35.907Z,98277.44
2023-05-08T04:10:27.521Z,98275.31
2023-05-08T04:12:59.881Z,98273.25
2023-05-08T04:15:30.980Z,98275.19
2023-05-08T04:18:00.513Z,98270.75
2023-05-08T04:20:29.374Z,98269.63
2023-05-08T04:22:57.860Z,98276.13
2023-05-08T04:25:25.976Z,98276.56
2023-05-08T04:27:53.325Z,98283.88
2023-05-08T04:30:20.456Z,98282.38
2023-05-08T04:32:48.032Z,98278.47
2023-05-08T04:35:14.908Z,98289.31
2023-05-08T04:37:43.606Z,98274.88
2023-05-08T04:40:10.924Z,98270.19
2023-05-08T04:42:39.554Z,98283.16
2023-05-08T04:45:07.164Z,98266.03
2023-05-08T04:47:33.779Z,98279.59
2023-05-08T04:50:02.239Z,98242.75
2023-05-08T04:52:29.521Z,98257.34
2023-05-08T04:54:56.083Z,98259.03
2023-05-08T04:57:22.679Z,98260.16
2023-05-08T04:59:49.286Z,98258.19
2023-05-08T05:02:15.865Z,98212.63
2023-05-08T05:04:42.447Z,98262.06
2023-05-08T05:07:09.002Z,98253.75
2023-05-08T05:09:37.165Z,98229.44
2023-05-08T05:12:07.284Z,98242.59
2023-05-08T05:14:34.204Z,98245.63
2023-05-08T05:17:00.982Z,98134.09
2023-05-08T05:19:27.584Z,98250.88
2023-05-08T05:21:54.117Z,98253.41
2023-05-08T05:24:20.704Z,98255.47
2023-05-08T05:26:47.246Z,98257.84
2023-05-08T05:29:13.803Z,98257.38
2023-05-08T05:31:40.416Z,98253.91
2023-05-08T05:34:07.317Z,98245.13
2023-05-08T05:36:34.051Z,98239.56
2023-05-08T05:39:00.935Z,98269.75
2023-05-08T05:41:27.522Z,98271.69
2023-05-08T05:43:54.136Z,98256.44
2023-05-08T05:46:20.713Z,98263.41
2023-05-08T05:48:47.398Z,98244.53
2023-05-08T05:51:13.964Z,98257.84
2023-05-08T05:53:40.549Z,98263.50
2023-05-08T05:56:07.424Z,98253.69
2023-05-08T05:58:34.429Z,98261.16
2023-05-08T06:01:03.944Z,98259.78
2023-05-08T06:03:30.778Z,98259.44
2023-05-08T06:05:57.559Z,98252.22
2023-05-08T06:08:24.395Z,98203.78
2023-05-08T06:10:50.983Z,98201.47
2023-05-08T06:13:17.646Z,98232.03
2023-05-08T06:15:45.136Z,98266.53
2023-05-08T06:18:12.053Z,98267.91
2023-05-08T06:20:39.448Z,98252.72
2023-05-08T06:23:06.322Z,98211.63
2023-05-08T06:25:33.028Z,98262.31
2023-05-08T06:27:59.894Z,98274.47
2023-05-08T06:30:26.483Z,98263.06
2023-05-08T06:32:53.043Z,98289.59
2023-05-08T06:35:19.924Z,98267.69
2023-05-08T06:37:49.273Z,98272.28
2023-05-08T06:40:19.031Z,98278.56
2023-05-08T06:42:46.266Z,98288.81
2023-05-08T06:45:13.139Z,98303.13
2023-05-08T06:47:39.958Z,98295.84
2023-05-08T06:50:07.151Z,98293.50
2023-05-08T06:52:33.796Z,98336.06
2023-05-08T06:55:00.398Z,98359.38
2023-05-08T06:57:29.242Z,98352.28
2023-05-08T06:59:56.835Z,98315.44
2023-05-08T07:02:23.652Z,98372.47
2023-05-08T07:04:50.242Z,98392.75
2023-05-08T07:07:16.857Z,98387.31
2023-05-08T07:09:43.387Z,98427.06
2023-05-08T07:12:09.990Z,98444.75
2023-05-08T07:14:36.938Z,98443.50
2023-05-08T07:17:07.676Z,98443.31
2023-05-08T07:19:36.529Z,98444.31
2023-05-08T07:22:03.435Z,98474.56
2023-05-08T07:24:30.192Z,98497.94
2023-05-08T07:26:57.310Z,98512.88
2023-05-08T07:29:24.065Z,98518.34
2023-05-08T07:31:52.113Z,98518.72
2023-05-08T07:34:18.844Z,98495.69
2023-05-08T07:36:45.584Z,98488.47
2023-05-08T07:39:12.201Z,98506.56
2023-05-08T07:41:40.989Z,98524.22
2023-05-08T07:44:08.513Z,98523.06
2023-05-08T07:46:35.359Z,98525.28
2023-05-08T07:49:01.988Z,98538.16
2023-05-08T07:51:29.667Z,98597.50
2023-05-08T07:53:56.378Z,98576.06
2023-05-08T07:56:23.151Z,98583.03
2023-05-08T07:58:53.696Z,98597.53
2023-05-08T08:01:20.374Z,98603.66
2023-05-08T08:03:47.326Z,98639.81
2023-05-08T08:06:14.459Z,98622.03
2023-05-08T08:08:41.068Z,98654.94
2023-05-08T08:11:07.724Z,98622.81
2023-05-08T08:13:41.868Z,98666.00
2023-05-08T08:16:08.495Z,98677.41
2023-05-08T08:18:36.435Z,98661.19
2023-05-08T08:21:07.535Z,98733.94
2023-05-08T08:23:34.789Z,98723.31
2023-05-08T08:26:01.472Z,98754.19
2023-05-08T08:28:28.096Z,98733.59
2023-05-08T08:30:55.158Z,98771.84
2023-05-08T08:33:21.727Z,98791.66
2023-05-08T08:35:48.408Z,98750.94
2023-05-08T08:38:15.619Z,98592.03
2023-05-08T08:40:43.329Z,98694.19
2023-05-08T08:43:09.958Z,98666.38
2023-05-08T08:45:37.548Z,98675.81
2023-05-08T08:48:07.324Z,98610.38
2023-05-08T08:50:36.420Z,98592.88
2023-05-08T08:53:32.222Z,98505.56
2023-05-08T08:56:02.264Z,98462.22
2023-05-08T08:58:38.117Z,98296.88
2023-05-08T09:01:07.761Z,98280.16
2023-05-08T09:03:34.485Z,98271.53
2023-05-08T09:06:01.785Z,98240.50
2023-05-08T09:08:28.840Z,99122.44
2023-05-08T09:10:56.401Z,99260.47
2023-05-08T09:13:23.111Z,99475.13
2023-05-08T09:15:52.471Z,99556.53
2023-05-08T09:18:19.351Z,99553.28
2023-05-08T09:20:46.568Z,99564.59
2023-05-08T09:23:14.906Z,99550.34
2023-05-08T09:25:45.949Z,99563.19
2023-05-08T09:28:34.778Z,99593.97
2023-05-08T09:31:02.510Z,99587.00
2023-05-08T09:33:29.653Z,99572.75
2023-05-08T09:35:57.534Z,99624.72
2023-05-08T09:38:30.453Z,99618.66
2023-05-08T09:41:12.649Z,99619.13
2023-05-08T09:43:39.460Z,99622.06
2023-05-08T09:46:26.495Z,99610.09
2023-05-08T09:48:55.890Z,99635.97
2023-05-08T09:51:23.858Z,99625.03
2023-05-08T09:53:54.368Z,99625.88
2023-05-08T09:56:34.151Z,99626.69
2023-05-08T09:59:03.390Z,99607.94
2023-05-08T10:01:36.992Z,99601.06
2023-05-08T10:04:05.749Z,99591.97
2023-05-08T10:06:32.760Z,99607.03
2023-05-08T10:09:15.991Z,99574.94
2023-05-08T10:11:52.951Z,99634.75
2023-05-08T10:14:20.587Z,99620.59
2023-05-08T10:16:49.258Z,99563.75
2023-05-08T10:19:18.308Z,99560.84
2023-05-08T10:21:48.324Z,99555.78
2023-05-08T10:24:25.984Z,99569.34
2023-05-08T10:27:06.748Z,99601.25
2023-05-08T10:29:43.323Z,99618.75
2023-05-08T10:32:10.760Z,99631.97
2023-05-08T10:34:40.632Z,99598.13
2023-05-08T10:37:11.094Z,99594.56
2023-05-08T10:39:38.760Z,99620.22
2023-05-08T10:42:05.406Z,99606.41
2023-05-08T10:44:32.014Z,99636.41
2023-05-08T10:47:07.739Z,99644.94
2023-05-08T10:49:56.357Z,99618.44
2023-05-08T10:52:43.942Z,99654.84
2023-05-08T10:55:30.473Z,99643.75
2023-05-08T10:58:07.034Z,99630.41
2023-05-08T11:00:53.476Z,99613.69
2023-05-08T11:03:31.518Z,99619.53
2023-05-08T11:06:00.205Z,99627.13
2023-05-08T11:08:28.824Z,99585.75
2023-05-08T11:11:06.429Z,99624.66
2023-05-08T11:13:44.350Z,99626.28
2023-05-08T11:16:11.236Z,99638.03
2023-05-08T11:18:49.078Z,99633.47
2023-05-08T11:21:23.773Z,99634.88
2023-05-08T11:23:58.232Z,99646.88
2023-05-08T11:26:42.653Z,99656.47
2023-05-08T11:29:18.426Z,99646.16
2023-05-08T11:31:52.151Z,99641.59
2023-05-08T11:34:44.017Z,99647.78
2023-05-08T11:37:18.314Z,99644.34
2023-05-08T11:39:45.008Z,99619.59
2023-05-08T11:42:29.821Z,99626.91
2023-05-08T11:45:04.527Z,99594.50
2023-05-08T11:47:37.626Z,99617.56
2023-05-08T11:50:04.328Z,99635.44
2023-05-08T11:52:36.091Z,99623.97
2023-05-08T11:55:08.592Z,99636.66
2023-05-08T11:57:35.361Z,99632.56
2023-05-08T12:00:12.764Z,99629.16
2023-05-08T12:02:43.918Z,99609.81
2023-05-08T12:05:11.789Z,99582.06
2023-05-08T12:07:46.647Z,99600.56
2023-05-08T12:10:15.041Z,99564.75
2023-05-08T12:12:44.189Z,99547.88
2023-05-08T12:15:15.436Z,99580.25
2023-05-08T12:17:43.286Z,99594.13
2023-05-08T12:20:18.215Z,99586.84
2023-05-08T12:22:53.663Z,99586.25
2023-05-08T12:25:20.508Z,99559.34
2023-05-08T12:27:47.462Z,99556.56
2023-05-08T12:30:15.287Z,99586.84
2023-05-08T12:32:46.375Z,99590.50
2023-05-08T12:35:14.135Z,99566.31
2023-05-08T12:37:40.810Z,99566.16
2023-05-08T12:40:08.661Z,99565.81
2023-05-08T12:42:44.547Z,99561.34
2023-05-08T12:45:18.885Z,99561.78
2023-05-08T12:47:47.412Z,99540.31
2023-05-08T12:50:19.755Z,99580.25
2023-05-08T12:52:48.838Z,99554.88
2023-05-08T12:55:37.905Z,99584.53
2023-05-08T12:58:15.052Z,99569.84
2023-05-08T13:00:47.487Z,99533.06
2023-05-08T13:03:23.946Z,99563.66
2023-05-08T13:05:50.656Z,99568.25
2023-05-08T13:08:17.524Z,99566.00
2023-05-08T13:10:50.890Z,99575.47
2023-05-08T13:13:22.936Z,99559.53
2023-05-08T13:15:51.531Z,99568.00
2023-05-08T13:18:19.411Z,99538.03
2023-05-08T13:20:46.392Z,99555.66
2023-05-08T13:23:13.583Z,99535.72
2023-05-08T13:25:43.033Z,99545.91
2023-05-08T13:28:10.803Z,99534.13
2023-05-08T13:30:37.990Z,99517.72
2023-05-08T13:33:05.371Z,99517.41
2023-05-08T13:35:32.911Z,99515.16
2023-05-08T13:37:59.834Z,99514.91
2023-05-08T13:40:26.697Z,99523.84
2023-05-08T13:42:53.909Z,99492.44
2023-05-08T13:45:20.556Z,99516.31
2023-05-08T13:47:48.553Z,99521.91
2023-05-08T13:50:16.705Z,99508.06
2023-05-08T13:52:43.334Z,99495.69
2023-05-08T13:55:12.241Z,99491.41
2023-05-08T13:57:39.748Z,99491.66
2023-05-08T14:00:07.609Z,99493.41
2023-05-08T14:02:34.533Z,99444.56
2023-05-08T14:05:01.238Z,99496.97
2023-05-08T14:07:28.210Z,99488.59
2023-05-08T14:09:54.897Z,99489.81
2023-05-08T14:12:21.427Z,99473.75
2023-05-08T14:14:48.037Z,99489.72
2023-05-08T14:17:14.542Z,99497.66
2023-05-08T14:19:41.196Z,99489.34
2023-05-08T14:22:07.725Z,99507.63
2023-05-08T14:24:35.114Z,99425.59
2023-05-08T14:27:05.799Z,99516.84
2023-05-08T14:29:34.239Z,99511.47
2023-05-08T14:32:01.302Z,99518.03
2023-05-08T14:34:28.168Z,99517.66
2023-05-08T14:36:55.010Z,99524.66
2023-05-08T14:39:21.708Z,99519.16
2023-05-08T14:42:05.773Z,99505.97
2023-05-08T14:44:35.179Z,99508.09
2023-05-08T14:47:01.770Z,99521.78
2023-05-08T14:49:37.365Z,99493.06
2023-05-08T14:52:05.647Z,99469.63
2023-05-08T14:54:32.350Z,99504.22
2023-05-08T14:56:59.189Z,99471.31
2023-05-08T14:59:25.734Z,99489.09
2023-05-08T15:01:52.357Z,99488.84
2023-05-08T15:04:19.283Z,99473.09
2023-05-08T15:06:46.178Z,99499.63
2023-05-08T15:09:12.810Z,99502.03
2023-05-08T15:11:39.510Z,99498.38
2023-05-08T15:14:06.229Z,99495.69
2023-05-08T15:16:32.884Z,99491.53
2023-05-08T15:18:59.450Z,99488.69
2023-05-08T15:21:26.865Z,99473.81
2023-05-08T15:23:55.283Z,99498.88
2023-05-08T15:26:22.917Z,99470.75
2023-05-08T15:28:49.800Z,99483.69
2023-05-08T15:31:16.950Z,99503.94
2023-05-08T15:33:45.197Z,99507.78
2023-05-08T15:36:13.568Z,99515.50
2023-05-08T15:38:41.238Z,99514.75
2023-05-08T15:41:07.904Z,99506.97
2023-05-08T15:43:34.464Z,99481.53
2023-05-08T15:46:01.174Z,99389.97
2023-05-08T15:48:27.837Z,99502.50
2023-05-08T15:50:54.653Z,99503.59
2023-05-08T15:53:21.197Z,99505.69
2023-05-08T15:55:47.800Z,99496.59
2023-05-08T15:58:14.502Z,99507.31
2023-05-08T16:00:45.217Z,99513.25
2023-05-08T16:03:12.637Z,99507.84
2023-05-08T16:05:39.619Z,99491.06
2023-05-08T16:08:07.533Z,99495.97
2023-05-08T16:10:34.433Z,99490.00
2023-05-08T16:13:01.056Z,99498.72
2023-05-08T16:15:27.898Z,99394.41
2023-05-08T16:17:54.623Z,99494.56
2023-05-08T16:20:21.302Z,99496.91
2023-05-08T16:22:47.912Z,99494.56
2023-05-08T16:25:14.695Z,99495.34
2023-05-08T16:27:41.478Z,99493.63
2023-05-08T16:30:08.681Z,99482.34
2023-05-08T16:32:35.375Z,99491.88
2023-05-08T16:35:02.024Z,99472.63
2023-05-08T16:37:28.664Z,99484.53
2023-05-08T16:39:55.229Z,99485.88
2023-05-08T16:42:21.785Z,99495.13
2023-05-08T16:44:48.384Z,99486.53
2023-05-08T16:47:15.020Z,99490.81
2023-05-08T16:49:41.682Z,99495.81
2023-05-08T16:52:08.352Z,99486.72
2023-05-08T16:54:35.054Z,99494.44
2023-05-08T16:57:01.872Z,99473.75
2023-05-08T16:59:28.453Z,99462.53
2023-05-08T17:01:55.416Z,99489.41
2023-05-08T17:04:22.028Z,99500.44
2023-05-08T17:06:48.646Z,99500.06
2023-05-08T17:09:18.493Z,99482.13
2023-05-08T17:11:45.338Z,99496.09
2023-05-08T17:14:11.901Z,99494.78
2023-05-08T17:16:38.772Z,99491.44
2023-05-08T17:19:05.330Z,99498.84
2023-05-08T17:21:32.167Z,99507.28
2023-05-08T17:24:02.145Z,99498.16
2023-05-08T17:26:31.998Z,99487.97
2023-05-08T17:28:58.565Z,99495.59
2023-05-08T17:31:25.717Z,99492.53
2023-05-08T17:33:52.384Z,99496.47
2023-05-08T17:36:18.948Z,99486.66
2023-05-08T17:38:46.466Z,99450.28
2023-05-08T17:41:14.087Z,99495.72
2023-05-08T17:43:40.735Z,99491.19
2023-05-08T17:46:07.971Z,99469.81
2023-05-08T17:48:35.231Z,99502.75
2023-05-08T17:51:03.220Z,99456.25
2023-05-08T17:53:33.157Z,99486.13
2023-05-08T17:55:59.760Z,99426.44
2023-05-08T17:58:26.757Z,99455.16
2023-05-08T18:00:54.036Z,99480.22
2023-05-08T18:03:20.828Z,99440.81
2023-05-08T18:05:47.696Z,99477.53
2023-05-08T18:08:14.323Z,99479.22
2023-05-08T18:10:41.018Z,99485.25
2023-05-08T18:13:08.002Z,99477.41
2023-05-08T18:15:39.059Z,99470.34
2023-05-08T18:18:05.855Z,99478.19
2023-05-08T18:20:32.481Z,99473.69
2023-05-08T18:22:59.038Z,99452.34
2023-05-08T18:25:25.638Z,99482.91
2023-05-08T18:27:52.206Z,99482.75
2023-05-08T18:30:18.832Z,99487.09
2023-05-08T18:32:45.465Z,99493.47
2023-05-08T18:35:12.100Z,99497.84
2023-05-08T18:37:38.622Z,99506.34
2023-05-08T18:40:05.788Z,99505.69
2023-05-08T18:42:32.316Z,99510.53
2023-05-08T18:45:00.910Z,99515.22
2023-05-08T18:47:27.578Z,99520.25
2023-05-08T18:49:54.199Z,99532.59
2023-05-08T18:52:20.783Z,99527.25
2023-05-08T18:54:47.309Z,99542.63
2023-05-08T18:57:13.908Z,99543.28
2023-05-08T18:59:40.569Z,99527.56
2023-05-08T19:02:07.182Z,99529.75
2023-05-08T19:04:33.748Z,99545.94
2023-05-08T19:07:01.005Z,99549.13
2023-05-08T19:09:27.679Z,99555.31
2023-05-08T19:11:54.398Z,99557.66
2023-05-08T19:14:21.060Z,99564.31
2023-05-08T19:16:47.657Z,99566.31
2023-05-08T19:19:14.239Z,99559.56
2023-05-08T19:21:40.779Z,99551.22
2023-05-08T19:24:07.869Z,99551.91
2023-05-08T19:26:34.476Z,99553.22
2023-05-08T19:29:01.013Z,99550.22
2023-05-08T19:31:27.594Z,99552.53
2023-05-08T19:33:54.875Z,99558.53
2023-05-08T19:36:21.494Z,99561.53
2023-05-08T19:38:48.886Z,99566.88
2023-05-08T19:41:17.309Z,99528.09
2023-05-08T19:43:43.852Z,99564.66
2023-05-08T19:46:10.582Z,99558.13
2023-05-08T19:48:37.634Z,99556.59
2023-05-08T19:51:08.760Z,99565.06
2023-05-08T19:53:35.879Z,99545.81
2023-05-08T19:56:02.592Z,99563.19
2023-05-08T19:58:29.471Z,99563.00
2023-05-08T20:00:56.317Z,99534.81
2023-05-08T20:03:23.412Z,99556.91
2023-05-08T20:05:53.208Z,99532.47
2023-05-08T20:08:20.197Z,99522.75
2023-05-08T20:10:49.582Z,99520.41
2023-05-08T20:13:17.262Z,99523.06
2023-05-08T20:15:43.917Z,99511.66
2023-05-08T20:18:10.686Z,99488.94
2023-05-08T20:20:37.213Z,99472.28
2023-05-08T20:23:04.392Z,99456.59
2023-05-08T20:25:31.225Z,99332.00
2023-05-08T20:27:57.992Z,99409.91
2023-05-08T20:30:24.599Z,99396.72
2023-05-08T20:32:51.504Z,99333.44
2023-05-08T20:35:18.334Z,99318.09
2023-05-08T20:37:46.311Z,99321.84
2023-05-08T20:40:13.896Z,99249.34
2023-05-08T20:42:41.287Z,99182.97
2023-05-08T20:45:08.910Z,99131.53
2023-05-08T20:47:35.956Z,99134.72
2023-05-08T20:50:03.397Z,99088.34
2023-05-08T20:52:32.248Z,99116.19
2023-05-08T20:54:59.610Z,99091.50
2023-05-08T20:57:26.431Z,99128.66
2023-05-08T20:59:53.048Z,99116.69
2023-05-08T21:02:19.612Z,99104.00
2023-05-08T21:04:46.332Z,99105.66
2023-05-08T21:07:13.133Z,99082.88
2023-05-08T21:09:39.748Z,99069.88
2023-05-08T21:12:06.758Z,98985.38
2023-05-08T21:14:34.990Z,98845.69
2023-05-08T21:17:01.659Z,98660.13
2023-05-08T21:19:28.269Z,98339.25
2023-05-08T21:21:54.865Z,98237.84
2023-05-08T21:24:21.608Z,98199.72
2023-05-08T21:26:48.148Z,98191.56
2023-05-08T21:29:14.929Z,98128.41
2023-05-08T21:31:41.987Z,98155.22
2023-05-08T21:34:08.756Z,98142.44
2023-05-08T21:36:35.432Z,98136.19
2023-05-08T21:39:02.881Z,98155.16
2023-05-08T21:41:29.464Z,98142.66
2023-05-08T21:43:56.334Z,98151.97
2023-05-08T21:46:22.971Z,98236.31
2023-05-08T21:48:49.588Z,98357.34
2023-05-08T21:51:16.183Z,98375.59
2023-05-08T21:53:42.712Z,98355.22
2023-05-08T21:56:09.298Z,98396.50
2023-05-08T21:58:35.887Z,98390.38
2023-05-08T22:01:02.597Z,98395.19
2023-05-08T22:03:29.476Z,98411.94
2023-05-08T22:05:56.257Z,98410.44
2023-05-08T22:08:22.878Z,98412.38
2023-05-08T22:10:50.484Z,98409.72
2023-05-08T22:13:17.382Z,98385.53
2023-05-08T22:15:44.040Z,98402.78
2023-05-08T22:18:10.531Z,98339.78
2023-05-08T22:20:38.368Z,98376.94
2023-05-08T22:23:04.932Z,98373.63
2023-05-08T22:25:31.924Z,98394.50
2023-05-08T22:27:58.667Z,98387.22
2023-05-08T22:30:25.244Z,98377.25
2023-05-08T22:32:57.297Z,98358.88
2023-05-08T22:35:25.297Z,98351.09
2023-05-08T22:37:53.003Z,98318.28
2023-05-08T22:40:20.430Z,98329.88
2023-05-08T22:42:47.540Z,98337.47
2023-05-08T22:45:14.584Z,98350.09
2023-05-08T22:47:41.592Z,98360.03
2023-05-08T22:50:09.239Z,98321.84
2023-05-08T22:52:36.354Z,98342.66
2023-05-08T22:55:03.197Z,98415.25
2023-05-08T22:57:29.867Z,98421.00
2023-05-08T22:59:56.477Z,98439.50
2023-05-08T23:02:23.318Z,98466.75
2023-05-08T23:04:49.923Z,98493.19
2023-05-08T23:07:16.827Z,98479.22
2023-05-08T23:09:43.335Z,98482.56
2023-05-08T23:12:09.936Z,98485.56
2023-05-08T23:14:36.485Z,98490.69
2023-05-08T23:17:03.088Z,98491.06
2023-05-08T23:19:29.647Z,98497.34
2023-05-08T23:21:56.440Z,98489.09
2023-05-08T23:24:22.932Z,98494.50
2023-05-08T23:26:49.835Z,98508.19
2023-05-08T23:29:16.409Z,98521.72
2023-05-08T23:31:43.010Z,98527.00
2023-05-08T23:34:09.515Z,98529.06
2023-05-08T23:36:36.065Z,98533.91
2023-05-08T23:39:02.632Z,98537.22
2023-05-08T23:41:29.429Z,98501.53
2023-05-08T23:43:56.316Z,98547.78
2023-05-08T23:46:24.931Z,98516.00
2023-05-08T23:48:51.453Z,98556.41
2023-05-08T23:51:18.250Z,98542.63
2023-05-08T23:53:44.756Z,98562.16
2023-05-08T23:56:11.365Z,98562.69
2023-05-08T23:58:38.114Z,98500.59
